| time (UTC) | temp C | wind direction | speed KPH | gust KPH | rain 1hr cm | rain 24hr cm | rain mn cm | humidity % | barometer mb |
| 20260906231613 | 16 | 5 | 11.3 | 17.7 | 0.00 | 0.28 | 0.00 | 79 | 1015.2 |
| 20260906224612 | 17 | 360 | 6.4 | 12.9 | 0.00 | 0.28 | 0.00 | 76 | 1015.4 |
| 20260906223110 | 17 | 355 | 6.4 | 14.5 | 0.00 | 0.28 | 0.00 | 76 | 1015.5 |
| 20260906221608 | 16 | 352 | 8.0 | 16.1 | 0.00 | 0.28 | 0.00 | 77 | 1015.9 |
| 20260906220100 | 17 | 346 | 8.0 | 16.1 | 0.00 | 0.28 | 0.00 | 76 | 1015.9 |
| 20260906214613 | 17 | 30 | 6.4 | 14.5 | 0.00 | 0.28 | 0.00 | 75 | 1015.9 |
| 20260906213103 | 16 | 64 | 3.2 | 12.9 | 0.00 | 0.28 | 0.00 | 75 | 1015.8 |
| 20260906211600 | 16 | 0 | 3.2 | 8.0 | 0.00 | 0.28 | 0.00 | 75 | 1015.9 |
| 20260906210112 | 16 | 112 | 4.8 | 12.9 | 0.00 | 0.28 | 0.00 | 76 | 1015.9 |
| 20260906204604 | 16 | 99 | 4.8 | 12.9 | 0.00 | 0.28 | 0.00 | 77 | 1015.8 |
| 20260906203105 | 16 | 126 | 8.0 | 12.9 | 0.00 | 0.28 | 0.00 | 77 | 1015.9 |
| 20260906201636 | 16 | 107 | 3.2 | 14.5 | 0.00 | 0.28 | 0.00 | 78 | 1016.1 |
| 20260906200100 | 16 | 85 | 1.6 | 11.3 | 0.00 | 0.28 | 0.00 | 80 | 1016.2 |
| 20260906194608 | 16 | 134 | 6.4 | 14.5 | 0.00 | 0.28 | 0.00 | 79 | 1016.3 |
| 20260906193059 | 15 | 112 | 8.0 | 14.5 | 0.00 | 0.28 | 0.00 | 80 | 1016.5 |
| 20260906191611 | 15 | 126 | 6.4 | 14.5 | 0.00 | 0.28 | 0.00 | 80 | 1016.6 |
| 20260906190104 | 15 | 86 | 11.3 | 17.7 | 0.00 | 0.28 | 0.00 | 82 | 1016.8 |
| 20260906184603 | 15 | 101 | 11.3 | 19.3 | 0.00 | 0.28 | 0.00 | 83 | 1016.8 |
| 20260906183106 | 15 | 126 | 14.5 | 24.1 | 0.00 | 0.28 | 0.00 | 85 | 1016.7 |
| 20260906181632 | 15 | 132 | 11.3 | 20.9 | 0.00 | 0.28 | 0.00 | 88 | 1016.9 |
| 20260906180104 | 14 | 74 | 6.4 | 12.9 | 0.00 | 0.28 | 0.00 | 88 | 1017.2 |
| 20260906174611 | 14 | 76 | 8.0 | 19.3 | 0.00 | 0.28 | 0.00 | 88 | 1017.4 |
| 20260906173106 | 13 | 66 | 9.7 | 17.7 | 0.00 | 0.28 | 0.00 | 88 | 1017.4 |
| 20260906171600 | 13 | 91 | 12.9 | 22.5 | 0.00 | 0.28 | 0.00 | 89 | 1017.2 |
| 20260906164600 | 12 | 338 | 6.4 | 12.9 | 0.00 | 0.28 | 0.00 | 90 | 1018.5 |
| 20260906163111 | 12 | 347 | 6.4 | 16.1 | 0.00 | 0.28 | 0.00 | 91 | 1018.6 |
| 20260906161608 | 12 | 13 | 6.4 | 16.1 | 0.00 | 0.28 | 0.00 | 91 | 1018.7 |
| 20260906160059 | 11 | 355 | 6.4 | 14.5 | 0.00 | 0.28 | 0.00 | 91 | 1018.7 |
| 20260906154606 | 11 | 5 | 6.4 | 17.7 | 0.00 | 0.28 | 0.00 | 91 | 1018.8 |
| 20260906153059 | 11 | 11 | 6.4 | 17.7 | 0.00 | 0.28 | 0.00 | 90 | 1019.2 |
| 20260906151600 | 11 | 13 | 9.7 | 16.1 | 0.00 | 0.28 | 0.00 | 88 | 1019.2 |
| 20260906150107 | 12 | 34 | 11.3 | 22.5 | 0.00 | 0.28 | 0.00 | 88 | 1019.2 |
| 20260906144603 | 12 | 296 | 11.3 | 25.7 | 0.00 | 0.28 | 0.00 | 88 | 1019.4 |
| 20260906143101 | 12 | 355 | 12.9 | 29.0 | 0.00 | 0.28 | 0.00 | 88 | 1019.5 |
| 20260906141606 | 13 | 355 | 11.3 | 20.9 | 0.00 | 0.28 | 0.00 | 87 | 1019.5 |
| 20260906140109 | 13 | 322 | 8.0 | 12.9 | 0.00 | 0.28 | 0.00 | 86 | 1019.2 |
| 20260906134617 | 13 | 331 | 3.2 | 8.0 | 0.00 | 0.41 | 0.00 | 85 | 1018.8 |
| 20260906133113 | 13 | 9 | 4.8 | 8.0 | 0.00 | 0.41 | 0.00 | 84 | 1018.8 |
| 20260906131606 | 13 | 5 | 3.2 | 14.5 | 0.00 | 0.41 | 0.00 | 85 | 1018.8 |
| 20260906130112 | 13 | 11 | 8.0 | 17.7 | 0.00 | 0.41 | 0.00 | 85 | 1019.0 |
| 20260906124608 | 13 | 350 | 8.0 | 14.5 | 0.00 | 0.43 | 0.00 | 84 | 1019.0 |
| 20260906123101 | 13 | 77 | 8.0 | 16.1 | 0.00 | 0.43 | 0.00 | 85 | 1019.2 |
| 20260906121625 | 14 | 93 | 6.4 | 14.5 | 0.00 | 0.43 | 0.00 | 85 | 1018.7 |
| 20260906120106 | 14 | 89 | 9.7 | 22.5 | 0.00 | 0.43 | 0.00 | 85 | 1018.4 |
| 20260906114625 | 14 | 87 | 8.0 | 14.5 | 0.00 | 0.43 | 0.00 | 84 | 1018.3 |
| 20260906113114 | 14 | 128 | 4.8 | 11.3 | 0.00 | 0.43 | 0.00 | 84 | 1018.7 |
| 20260906111558 | 14 | 98 | 3.2 | 17.7 | 0.00 | 0.43 | 0.00 | 83 | 1018.7 |
| 20260906110106 | 14 | 69 | 9.7 | 17.7 | 0.00 | 0.43 | 0.00 | 83 | 1018.8 |
| 20260906104602 | 14 | 81 | 11.3 | 20.9 | 0.00 | 0.43 | 0.00 | 83 | 1019.1 |
| 20260906103100 | 13 | 64 | 6.4 | 17.7 | 0.00 | 0.43 | 0.00 | 84 | 1019.2 |
| 20260906101602 | 13 | 63 | 8.0 | 16.1 | 0.00 | 0.43 | 0.00 | 85 | 1019.1 |
| 20260906100106 | 13 | 23 | 9.7 | 14.5 | 0.00 | 0.43 | 0.00 | 85 | 1018.9 |
| 20260906094559 | 13 | 66 | 8.0 | 14.5 | 0.00 | 0.43 | 0.00 | 86 | 1019.1 |
| 20260906093105 | 13 | 64 | 6.4 | 19.3 | 0.00 | 0.43 | 0.00 | 86 | 1019.0 |
| 20260906091619 | 13 | 67 | 11.3 | 20.9 | 0.00 | 0.43 | 0.00 | 88 | 1018.8 |
| 20260906090112 | 13 | 68 | 6.4 | 17.7 | 0.00 | 0.43 | 0.00 | 87 | 1019.0 |
| 20260906084601 | 13 | 41 | 8.0 | 17.7 | 0.00 | 0.43 | 0.00 | 87 | 1019.1 |
| 20260906083059 | 13 | 338 | 8.0 | 14.5 | 0.00 | 0.43 | 0.00 | 87 | 1019.4 |
| 20260906081602 | 13 | 45 | 8.0 | 16.1 | 0.00 | 0.43 | 0.00 | 87 | 1019.7 |
| 20260906080111 | 13 | 11 | 6.4 | 14.5 | 0.00 | 0.43 | 0.00 | 86 | 1019.9 |
| 20260906074602 | 13 | 14 | 9.7 | 17.7 | 0.00 | 0.43 | 0.00 | 85 | 1019.9 |
| 20260906073100 | 13 | 338 | 6.4 | 12.9 | 0.00 | 0.43 | 0.00 | 86 | 1020.1 |
| 20260906071616 | 13 | 9 | 3.2 | 12.9 | 0.00 | 0.43 | 0.00 | 86 | 1020.1 |
| 20260906070106 | 13 | 68 | 3.2 | 11.3 | 0.00 | 0.43 | 0.00 | 86 | 1020.1 |
| 20260906064606 | 13 | 57 | 3.2 | 14.5 | 0.03 | 0.43 | 0.00 | 85 | 1020.2 |
| 20260906063100 | 13 | 61 | 4.8 | 12.9 | 0.03 | 0.43 | 0.00 | 84 | 1020.4 |
| 20260906061600 | 13 | 60 | 4.8 | 19.3 | 0.03 | 0.43 | 0.00 | 83 | 1020.5 |
| 20260906060150 | 13 | 355 | 12.9 | 24.1 | 0.03 | 0.43 | 0.00 | 84 | 1020.6 |
| 20260906054613 | 13 | 15 | 12.9 | 19.3 | 0.00 | 0.41 | 0.41 | 86 | 1020.6 |
| 20260906053105 | 13 | 360 | 9.7 | 16.1 | 0.00 | 0.41 | 0.41 | 85 | 1020.6 |
| 20260906051606 | 13 | 15 | 9.7 | 16.1 | 0.03 | 0.41 | 0.41 | 86 | 1020.3 |
| 20260906050116 | 13 | 5 | 9.7 | 16.1 | 0.03 | 0.41 | 0.41 | 86 | 1020.0 |
| 20260906044601 | 13 | 9 | 9.7 | 14.5 | 0.03 | 0.41 | 0.41 | 86 | 1020.2 |
| 20260906043105 | 13 | 10 | 4.8 | 14.5 | 0.03 | 0.41 | 0.41 | 85 | 1020.1 |
| 20260906041558 | 13 | 348 | 8.0 | 17.7 | 0.00 | 0.38 | 0.38 | 84 | 1020.3 |
| 20260906040111 | 14 | 360 | 9.7 | 17.7 | 0.00 | 0.38 | 0.38 | 82 | 1019.5 |
| 20260906034603 | 14 | 56 | 4.8 | 17.7 | 0.23 | 0.38 | 0.38 | 80 | 1018.9 |
| 20260906033104 | 15 | 20 | 6.4 | 19.3 | 0.23 | 0.38 | 0.38 | 79 | 1019.1 |
| 20260906031630 | 15 | 64 | 16.1 | 24.1 | 0.23 | 0.38 | 0.38 | 76 | 1019.3 |
| 20260906030104 | 15 | 73 | 9.7 | 24.1 | 0.23 | 0.38 | 0.38 | 74 | 1019.4 |
| 20260906024605 | 16 | 323 | 17.7 | 27.4 | 0.00 | 0.15 | 0.15 | 67 | 1020.6 |
| 20260906023111 | 16 | 69 | 12.9 | 20.9 | 0.00 | 0.15 | 0.15 | 64 | 1017.7 |
| 20260906021600 | 17 | 81 | 9.7 | 16.1 | 0.00 | 0.15 | 0.15 | 67 | 1017.4 |
| 20260906020106 | 17 | 54 | 3.2 | 12.9 | 0.00 | 0.15 | 0.15 | 65 | 1017.7 |
| 20260906014611 | 17 | 87 | 9.7 | 20.9 | 0.00 | 0.15 | 0.15 | 61 | 1017.6 |
| 20260906013104 | 18 | 67 | 11.3 | 19.3 | 0.00 | 0.15 | 0.15 | 60 | 1017.6 |
| 20260906011610 | 18 | 53 | 9.7 | 20.9 | 0.00 | 0.15 | 0.15 | 60 | 1017.8 |
| 20260906010104 | 19 | 50 | 6.4 | 22.5 | 0.00 | 0.15 | 0.15 | 57 | 1017.7 |
| 20260906004608 | 20 | 86 | 6.4 | 20.9 | 0.00 | 0.15 | 0.15 | 55 | 1017.7 |
| 20260906003104 | 20 | 28 | 6.4 | 20.9 | 0.00 | 0.15 | 0.15 | 53 | 1017.6 |
| 20260906001601 | 21 | 33 | 11.3 | 25.7 | 0.00 | 0.15 | 0.15 | 51 | 1017.7 |
| 20260906000109 | 21 | 350 | 12.9 | 25.7 | 0.00 | 0.15 | 0.15 | 48 | 1017.8 |
| 20260905234559 | 22 | 5 | 8.0 | 19.3 | 0.00 | 0.15 | 0.15 | 45 | 1017.7 |
| 20260905233107 | 22 | 11 | 4.8 | 22.5 | 0.00 | 0.15 | 0.15 | 45 | 1018.0 |